createdAt,value
2017-12-21T00:01:51.534Z,17.30
2017-12-21T00:06:52.778Z,18.90
2017-12-21T00:11:54.006Z,18.67
2017-12-21T00:16:55.974Z,18.53
2017-12-21T00:21:57.208Z,18.10
2017-12-21T00:26:58.416Z,18.30
2017-12-21T00:31:59.608Z,18.00
2017-12-21T00:37:00.825Z,18.87
2017-12-21T00:42:02.017Z,19.20
2017-12-21T00:47:03.204Z,17.90
2017-12-21T00:52:04.441Z,18.70
2017-12-21T00:57:05.641Z,15.60
2017-12-21T01:02:06.829Z,17.10
2017-12-21T01:07:08.018Z,16.73
2017-12-21T01:12:09.227Z,17.93
2017-12-21T01:17:10.401Z,17.83
2017-12-21T01:22:11.653Z,17.90
2017-12-21T01:27:12.911Z,16.87
2017-12-21T01:32:14.872Z,17.27
2017-12-21T01:37:16.086Z,16.87
2017-12-21T01:42:17.382Z,17.33
2017-12-21T01:47:18.684Z,16.80
2017-12-21T01:52:20.629Z,15.37
2017-12-21T01:57:21.830Z,15.97
2017-12-21T02:02:23.017Z,14.63
2017-12-21T02:07:24.225Z,14.43
2017-12-21T02:12:25.416Z,13.90
2017-12-21T02:17:26.650Z,12.10
2017-12-21T02:22:27.842Z,13.70
2017-12-21T02:27:29.049Z,14.10
2017-12-21T02:32:30.296Z,14.20
2017-12-21T02:37:31.515Z,14.27
2017-12-21T02:42:32.736Z,14.47
2017-12-21T02:47:33.987Z,16.20
2017-12-21T02:52:35.214Z,14.73
2017-12-21T02:57:36.453Z,14.90
2017-12-21T03:02:37.686Z,14.10
2017-12-21T03:07:38.914Z,12.70
2017-12-21T03:12:40.142Z,12.93
2017-12-21T03:17:41.398Z,12.30
2017-12-21T03:22:42.648Z,13.87
2017-12-21T03:27:44.683Z,14.80
2017-12-21T03:32:45.918Z,14.90
2017-12-21T03:37:47.143Z,14.63
2017-12-21T03:42:48.328Z,14.27
2017-12-21T03:47:49.604Z,14.40
2017-12-21T03:52:51.569Z,15.37
2017-12-21T03:57:52.801Z,13.90
2017-12-21T04:02:54.027Z,14.23
2017-12-21T04:07:55.248Z,13.50
2017-12-21T04:12:56.464Z,13.37
2017-12-21T04:17:57.681Z,14.80
2017-12-21T04:22:58.882Z,14.93
2017-12-21T04:28:00.481Z,14.20
2017-12-21T04:33:01.775Z,16.00
2017-12-21T04:38:02.981Z,15.60
2017-12-21T04:43:04.197Z,14.77
2017-12-21T04:48:05.410Z,15.07
2017-12-21T04:53:06.678Z,16.03
2017-12-21T04:58:07.892Z,16.27
2017-12-21T05:03:09.158Z,14.27
2017-12-21T05:08:10.389Z,15.87
2017-12-21T05:13:11.587Z,16.03
2017-12-21T05:18:12.945Z,14.30
2017-12-21T05:23:14.174Z,14.83
2017-12-21T05:28:16.206Z,13.00
2017-12-21T05:33:17.419Z,13.13
2017-12-21T05:38:18.609Z,11.57
2017-12-21T05:43:20.015Z,11.17
2017-12-21T05:48:21.231Z,11.47
2017-12-21T05:53:23.363Z,10.27
2017-12-21T05:58:24.681Z,10.20
2017-12-21T06:03:25.905Z,9.90
2017-12-21T06:08:27.118Z,9.47
2017-12-21T06:13:28.345Z,8.97
2017-12-21T06:18:29.568Z,9.57
2017-12-21T06:23:30.756Z,10.50
2017-12-21T06:28:31.974Z,10.37
2017-12-21T06:33:33.229Z,10.13
2017-12-21T06:38:34.432Z,9.97
2017-12-21T06:43:36.365Z,9.50
2017-12-21T06:48:37.550Z,9.30
2017-12-21T06:53:38.961Z,9.13
2017-12-21T06:58:40.149Z,8.57
2017-12-21T07:03:41.370Z,7.40
2017-12-21T07:08:42.550Z,7.87
2017-12-21T07:13:43.903Z,7.77
2017-12-21T07:18:45.183Z,7.13
2017-12-21T07:23:46.389Z,7.40
2017-12-21T07:28:47.572Z,7.63
2017-12-21T07:33:48.794Z,7.70
2017-12-21T07:38:50.752Z,6.97
2017-12-21T07:43:51.977Z,7.10
2017-12-21T07:48:53.157Z,8.63
2017-12-21T07:53:54.356Z,7.50
2017-12-21T07:58:55.548Z,7.70
2017-12-21T08:03:57.494Z,6.97
2017-12-21T08:08:58.681Z,8.97
2017-12-21T08:13:59.889Z,8.47
2017-12-21T08:19:01.102Z,8.33
2017-12-21T08:24:02.291Z,8.23
2017-12-21T08:29:04.230Z,8.40
2017-12-21T08:34:05.441Z,7.40
2017-12-21T08:39:06.630Z,8.17
2017-12-21T08:44:07.859Z,7.60
2017-12-21T08:49:09.787Z,7.77
2017-12-21T08:54:11.046Z,7.23
2017-12-21T08:59:12.234Z,7.20
2017-12-21T09:04:20.450Z,7.37
2017-12-21T09:09:21.621Z,8.10
2017-12-21T09:14:22.813Z,8.33
2017-12-21T09:19:24.038Z,8.23
2017-12-21T09:24:25.242Z,9.40
2017-12-21T09:29:27.228Z,10.53
2017-12-21T09:34:28.419Z,10.00
2017-12-21T09:39:30.398Z,10.57
2017-12-21T09:44:31.612Z,10.70
2017-12-21T09:49:33.521Z,10.40
2017-12-21T09:54:35.508Z,10.83
2017-12-21T09:59:36.690Z,10.87
2017-12-21T10:04:37.888Z,11.10
2017-12-21T10:09:39.893Z,11.33
2017-12-21T10:14:41.066Z,11.30
2017-12-21T10:19:42.285Z,11.00
2017-12-21T10:24:44.267Z,11.17
2017-12-21T10:29:46.235Z,10.47
2017-12-21T10:34:47.436Z,10.70
2017-12-21T10:39:48.635Z,10.93
2017-12-21T10:44:49.828Z,9.67
2017-12-21T10:49:51.010Z,8.77
2017-12-21T10:54:52.201Z,8.00
2017-12-21T10:59:53.392Z,7.10
2017-12-21T11:04:54.562Z,6.10
2017-12-21T11:09:55.782Z,6.03
2017-12-21T11:14:57.698Z,5.70
2017-12-21T11:19:58.908Z,4.70
2017-12-21T11:25:00.093Z,4.80
2017-12-21T11:30:01.326Z,4.77
2017-12-21T11:35:02.530Z,5.50
2017-12-21T11:40:04.479Z,5.00
2017-12-21T11:45:05.734Z,6.30
2017-12-21T11:50:06.960Z,7.50
2017-12-21T11:55:08.194Z,7.20
2017-12-21T12:00:10.207Z,8.17
2017-12-21T12:05:11.460Z,9.40
2017-12-21T12:10:13.465Z,8.77
2017-12-21T12:15:14.686Z,8.10
2017-12-21T12:20:16.040Z,8.47
2017-12-21T12:25:17.209Z,8.73
2017-12-21T12:30:19.195Z,8.40
2017-12-21T12:35:24.276Z,10.23
2017-12-21T12:40:25.607Z,9.90
2017-12-21T12:45:26.967Z,10.87
2017-12-21T12:50:28.645Z,10.70
2017-12-21T12:55:29.832Z,12.07
2017-12-21T13:00:31.427Z,9.67
2017-12-21T13:05:33.170Z,8.00
2017-12-21T13:10:34.636Z,9.93
2017-12-21T13:15:36.815Z,9.70
2017-12-21T13:20:38.255Z,10.03
2017-12-21T13:25:40.371Z,9.17
2017-12-21T13:30:41.772Z,7.93
2017-12-21T13:35:43.771Z,9.80
2017-12-21T13:40:46.098Z,9.90
2017-12-21T13:45:47.501Z,9.97
2017-12-21T13:50:48.747Z,8.73
2017-12-21T13:55:49.973Z,9.00
2017-12-21T14:00:51.745Z,9.30
2017-12-21T14:05:53.520Z,9.20
2017-12-21T14:10:55.003Z,9.43
2017-12-21T14:15:56.252Z,9.13
2017-12-21T14:20:57.722Z,8.97
2017-12-21T14:25:59.688Z,9.63
2017-12-21T14:31:01.305Z,9.37
2017-12-21T14:36:03.602Z,9.37
2017-12-21T14:41:04.815Z,9.07
2017-12-21T14:46:06.022Z,9.97
2017-12-21T14:51:07.950Z,10.90
2017-12-21T14:56:09.518Z,9.20
2017-12-21T15:01:10.762Z,10.00
2017-12-21T15:06:11.953Z,9.83
2017-12-21T15:11:13.200Z,10.17
2017-12-21T15:16:15.148Z,9.20
2017-12-21T15:21:16.362Z,10.37
2017-12-21T15:26:17.557Z,9.30
2017-12-21T15:31:18.764Z,9.40
2017-12-21T15:36:19.969Z,9.90
2017-12-21T15:41:21.146Z,9.47
2017-12-21T15:46:22.329Z,11.33
2017-12-21T15:51:23.533Z,9.87
2017-12-21T15:56:24.858Z,11.17
2017-12-21T16:01:26.109Z,11.63
2017-12-21T16:06:28.283Z,10.97
2017-12-21T16:11:29.534Z,10.47
2017-12-21T16:16:30.794Z,12.23
2017-12-21T16:21:33.241Z,11.30
2017-12-21T16:26:34.514Z,12.40
2017-12-21T16:31:35.820Z,13.77
2017-12-21T16:36:40.397Z,12.90
2017-12-21T16:41:42.116Z,12.17
2017-12-21T16:46:43.458Z,13.60
2017-12-21T16:51:44.670Z,13.27
2017-12-21T16:56:46.398Z,15.83
2017-12-21T17:01:49.289Z,17.47
2017-12-21T17:06:51.477Z,26.57
2017-12-21T17:11:54.683Z,18.33
2017-12-21T17:16:56.034Z,17.50
2017-12-21T17:21:58.194Z,18.20
2017-12-21T17:26:59.535Z,24.27
2017-12-21T17:32:00.909Z,21.57
2017-12-21T17:37:02.258Z,20.53
2017-12-21T17:42:03.526Z,19.37
2017-12-21T17:47:04.759Z,20.00
2017-12-21T17:52:06.045Z,20.20
2017-12-21T17:57:07.226Z,19.47
2017-12-21T18:02:08.433Z,19.20
2017-12-21T18:07:09.633Z,20.60
2017-12-21T18:12:10.878Z,20.10
2017-12-21T18:17:12.146Z,19.17
2017-12-21T18:22:13.374Z,22.10
2017-12-21T18:27:14.696Z,20.80
2017-12-21T18:32:15.905Z,18.27
2017-12-21T18:37:17.146Z,20.43
2017-12-21T18:42:18.394Z,19.97
2017-12-21T18:47:19.596Z,20.40
2017-12-21T18:52:20.796Z,21.13
2017-12-21T18:57:22.068Z,21.67
2017-12-21T19:02:23.487Z,23.37
2017-12-21T19:07:25.708Z,23.80
2017-12-21T19:12:26.970Z,24.90
2017-12-21T19:17:28.168Z,27.30
2017-12-21T19:22:29.495Z,20.37
2017-12-21T19:27:30.720Z,22.53
2017-12-21T19:32:32.329Z,23.00
2017-12-21T19:37:33.618Z,23.40
2017-12-21T19:42:35.066Z,23.60
2017-12-21T19:47:36.410Z,24.00
2017-12-21T19:52:37.680Z,19.80
2017-12-21T19:57:39.260Z,24.40
2017-12-21T20:02:40.524Z,21.73
2017-12-21T20:07:41.790Z,19.60
2017-12-21T20:12:43.859Z,18.37
2017-12-21T20:17:45.229Z,16.93
2017-12-21T20:22:46.487Z,18.43
2017-12-21T20:27:47.983Z,16.43
2017-12-21T20:32:49.278Z,17.63
2017-12-21T20:37:50.572Z,17.93
2017-12-21T20:42:51.899Z,16.23
2017-12-21T20:47:53.216Z,18.20
2017-12-21T20:52:54.458Z,19.00
2017-12-21T20:57:55.764Z,19.63
2017-12-21T21:02:57.012Z,20.10
2017-12-21T21:07:58.262Z,19.43
2017-12-21T21:13:00.304Z,20.70
2017-12-21T21:18:01.598Z,19.27
2017-12-21T21:23:03.860Z,19.20
2017-12-21T21:28:06.080Z,19.00
2017-12-21T21:33:08.038Z,20.00
2017-12-21T21:38:09.290Z,19.90
2017-12-21T21:43:10.558Z,19.70
2017-12-21T21:48:12.670Z,18.97
2017-12-21T21:53:14.645Z,19.73
2017-12-21T21:58:15.882Z,19.93
2017-12-21T22:03:17.121Z,18.90
2017-12-21T22:08:18.305Z,18.00
2017-12-21T22:13:19.630Z,18.50
2017-12-21T22:18:20.809Z,19.10
2017-12-21T22:23:23.050Z,18.00
2017-12-21T22:28:24.378Z,18.30
2017-12-21T22:33:25.591Z,19.77
2017-12-21T22:38:28.031Z,18.40
2017-12-21T22:43:29.743Z,18.00
2017-12-21T22:48:31.050Z,19.03
2017-12-21T22:53:32.278Z,19.70
2017-12-21T22:58:34.247Z,19.27
2017-12-21T23:03:35.452Z,17.73
2017-12-21T23:08:36.764Z,19.00
2017-12-21T23:13:38.690Z,19.67
2017-12-21T23:18:39.882Z,19.20
2017-12-21T23:23:41.142Z,19.60
2017-12-21T23:28:43.407Z,20.80
2017-12-21T23:33:44.915Z,21.20
2017-12-21T23:38:46.154Z,20.80
2017-12-21T23:43:47.350Z,18.90
2017-12-21T23:48:48.536Z,18.90
2017-12-21T23:53:49.724Z,18.00
2017-12-21T23:58:50.928Z,18.70
